createdAt,value
2023-03-22T00:02:43.317Z,33.57
2023-03-22T00:06:43.066Z,33.56
2023-03-22T00:10:42.841Z,33.52
2023-03-22T00:14:42.627Z,33.55
2023-03-22T00:18:42.407Z,33.53
2023-03-22T00:22:42.181Z,33.49
2023-03-22T00:26:41.977Z,33.46
2023-03-22T00:30:41.750Z,33.49
2023-03-22T00:34:41.542Z,33.43
2023-03-22T00:38:43.129Z,33.49
2023-03-22T00:42:41.290Z,33.46
2023-03-22T00:46:41.078Z,33.44
2023-03-22T00:50:41.187Z,33.38
2023-03-22T00:54:40.671Z,33.32
2023-03-22T00:58:40.463Z,33.33
2023-03-22T01:02:40.256Z,33.37
2023-03-22T01:06:40.318Z,33.33
2023-03-22T01:10:40.197Z,33.35
2023-03-22T01:14:39.630Z,33.32
2023-03-22T01:18:39.422Z,33.26
2023-03-22T01:22:39.454Z,33.26
2023-03-22T01:26:39.507Z,33.26
2023-03-22T01:30:39.588Z,33.24
2023-03-22T01:34:39.078Z,33.23
2023-03-22T01:38:38.868Z,33.18
2023-03-22T01:42:38.645Z,33.23
2023-03-22T01:46:38.502Z,33.18
2023-03-22T01:50:38.706Z,33.18
2023-03-22T01:54:37.986Z,33.16
2023-03-22T01:58:37.781Z,33.12
2023-03-22T02:02:37.704Z,33.08
2023-03-22T02:06:37.698Z,33.12
2023-03-22T02:10:38.126Z,33.07
2023-03-22T02:14:37.728Z,32.99
2023-03-22T02:18:37.505Z,33.01
2023-03-22T02:22:37.298Z,33.02
2023-03-22T02:26:37.089Z,33.04
2023-03-22T02:30:37.304Z,33.06
2023-03-22T02:34:36.699Z,32.97
2023-03-22T02:38:36.491Z,32.96
2023-03-22T02:42:36.289Z,32.93
2023-03-22T02:46:36.083Z,32.93
2023-03-22T02:50:35.864Z,32.88
2023-03-22T02:54:35.648Z,32.85
2023-03-22T02:58:35.640Z,32.91
2023-03-22T03:02:35.416Z,32.88
2023-03-22T03:06:35.200Z,32.84
2023-03-22T03:10:35.010Z,32.91
2023-03-22T03:14:34.778Z,32.82
2023-03-22T03:18:34.568Z,32.80
2023-03-22T03:22:34.369Z,32.81
2023-03-22T03:26:34.159Z,32.77
2023-03-22T03:30:33.949Z,32.79
2023-03-22T03:34:33.741Z,32.77
2023-03-22T03:38:33.527Z,32.73
2023-03-22T03:42:33.578Z,32.73
2023-03-22T03:46:33.385Z,32.76
2023-03-22T03:50:33.174Z,32.71
2023-03-22T03:54:32.983Z,32.70
2023-03-22T03:58:32.784Z,32.73
2023-03-22T04:02:32.596Z,32.70
2023-03-22T04:06:32.384Z,32.68
2023-03-22T04:10:32.176Z,32.66
2023-03-22T04:14:32.029Z,32.59
2023-03-22T04:18:31.787Z,32.59
2023-03-22T04:22:31.606Z,32.55
2023-03-22T04:26:31.619Z,32.57
2023-03-22T04:30:31.425Z,32.63
2023-03-22T04:34:31.211Z,32.58
2023-03-22T04:38:31.034Z,32.59
2023-03-22T04:42:30.815Z,32.60
2023-03-22T04:46:30.641Z,32.59
2023-03-22T04:50:30.409Z,32.54
2023-03-22T04:54:30.192Z,32.57
2023-03-22T04:58:29.995Z,32.48
2023-03-22T05:02:29.812Z,32.48
2023-03-22T05:06:29.582Z,32.46
2023-03-22T05:10:29.380Z,32.49
2023-03-22T05:14:29.212Z,32.41
2023-03-22T05:18:28.982Z,32.44
2023-03-22T05:22:28.779Z,32.41
2023-03-22T05:26:28.575Z,32.41
2023-03-22T05:30:28.366Z,32.38
2023-03-22T05:34:28.135Z,32.36
2023-03-22T05:38:28.045Z,32.37
2023-03-22T05:42:27.760Z,32.32
2023-03-22T05:46:27.551Z,32.37
2023-03-22T05:50:27.501Z,32.30
2023-03-22T05:54:27.298Z,32.34
2023-03-22T05:58:27.097Z,32.34
2023-03-22T06:02:26.879Z,32.32
2023-03-22T06:06:26.738Z,32.78
2023-03-22T06:10:26.468Z,32.64
2023-03-22T06:14:26.285Z,33.08
2023-03-22T06:18:26.086Z,33.92
2023-03-22T06:22:25.935Z,33.78
2023-03-22T06:26:25.754Z,35.25
2023-03-22T06:30:25.675Z,35.02
2023-03-22T06:34:25.422Z,34.85
2023-03-22T06:38:25.224Z,33.46
2023-03-22T06:42:25.046Z,33.13
2023-03-22T06:46:24.819Z,33.23
2023-03-22T06:50:24.641Z,33.05
2023-03-22T06:54:24.668Z,33.24
2023-03-22T06:58:24.643Z,30.27
2023-03-22T07:02:24.627Z,30.47
2023-03-22T07:06:24.691Z,29.41
2023-03-22T07:10:24.756Z,30.58
2023-03-22T07:14:24.781Z,30.10
2023-03-22T08:09:39.814Z,35.69
2023-03-22T08:13:38.972Z,34.59
2023-03-22T08:17:38.065Z,34.18
2023-03-22T08:21:37.110Z,35.25
2023-03-22T08:25:36.135Z,34.97
2023-03-22T08:29:35.194Z,34.47
2023-03-22T08:33:34.166Z,34.38
2023-03-22T08:37:33.334Z,34.24
2023-03-22T08:41:32.227Z,34.17
2023-03-22T08:45:31.264Z,34.12
2023-03-22T08:49:30.329Z,33.99
2023-03-22T08:53:29.360Z,33.93
2023-03-22T08:57:28.355Z,33.82
2023-03-22T09:01:27.618Z,33.87
2023-03-22T09:05:26.372Z,33.82
2023-03-22T09:09:27.030Z,33.82
2023-03-22T09:13:24.394Z,35.62
2023-03-22T09:17:23.425Z,35.86
2023-03-22T09:21:22.434Z,35.00
2023-03-22T09:25:21.448Z,34.27
2023-03-22T09:29:20.443Z,33.61
2023-03-22T09:33:19.462Z,33.82
2023-03-22T09:37:25.535Z,33.90
2023-03-22T09:41:17.471Z,33.90
2023-03-22T09:45:16.500Z,34.21
2023-03-22T09:49:16.051Z,34.23
2023-03-22T09:53:14.470Z,34.28
2023-03-22T09:57:13.460Z,34.14
2023-03-22T10:01:12.569Z,34.18
2023-03-22T10:05:11.470Z,33.99
2023-03-22T10:09:10.505Z,34.24
2023-03-22T10:13:09.494Z,34.18
2023-03-22T10:17:08.523Z,34.78
2023-03-22T10:21:07.574Z,36.45
2023-03-22T10:25:06.597Z,36.11
2023-03-22T10:29:05.594Z,35.55
2023-03-22T10:33:04.582Z,34.80
2023-03-22T10:37:03.571Z,34.82
2023-03-22T10:41:02.569Z,34.24
2023-03-22T10:45:01.632Z,34.02
2023-03-22T10:49:00.765Z,34.38
2023-03-22T10:52:59.833Z,34.09
2023-03-22T10:56:58.861Z,34.21
2023-03-22T11:00:58.059Z,33.83
2023-03-22T11:04:57.042Z,33.60
2023-03-22T11:08:56.118Z,33.30
2023-03-22T11:12:55.587Z,33.99
2023-03-22T11:16:54.324Z,33.67
2023-03-22T11:20:53.318Z,34.13
2023-03-22T11:24:52.377Z,34.00
2023-03-22T11:28:51.439Z,33.85
2023-03-22T11:32:50.636Z,33.76
2023-03-22T11:40:48.714Z,33.67
2023-03-22T11:44:47.844Z,33.88
2023-03-22T11:48:47.087Z,33.97
2023-03-22T11:52:46.038Z,34.11
2023-03-22T11:56:45.166Z,34.28
2023-03-22T12:00:44.264Z,34.25
2023-03-22T12:04:43.433Z,34.85
2023-03-22T12:08:42.452Z,34.33
2023-03-22T12:12:41.530Z,34.37
2023-03-22T12:16:40.618Z,34.37
2023-03-22T12:20:39.846Z,34.22
2023-03-22T12:24:38.682Z,34.51
2023-03-22T12:28:37.690Z,34.87
2023-03-22T12:32:36.807Z,35.24
2023-03-22T12:36:35.748Z,35.00
2023-03-22T12:40:34.786Z,35.03
2023-03-22T12:44:33.815Z,34.90
2023-03-22T12:48:32.956Z,34.92
2023-03-22T12:52:37.714Z,34.94
2023-03-22T12:56:31.865Z,34.95
2023-03-22T13:00:29.951Z,34.86
2023-03-22T13:04:28.888Z,34.85
2023-03-22T13:08:27.851Z,34.84
2023-03-22T13:12:26.862Z,34.81
2023-03-22T13:16:25.844Z,34.88
2023-03-22T13:20:24.844Z,34.79
2023-03-22T13:24:23.876Z,34.82
2023-03-22T13:28:32.805Z,34.84
2023-03-22T13:32:21.855Z,34.71
2023-03-22T13:36:20.864Z,34.71
2023-03-22T13:40:19.859Z,34.73
2023-03-22T13:44:18.872Z,34.69
2023-03-22T13:48:18.025Z,34.69
2023-03-22T13:52:16.884Z,34.70
2023-03-22T13:56:15.882Z,34.65
2023-03-22T14:00:15.329Z,35.10
2023-03-22T14:04:13.907Z,34.52
2023-03-22T14:08:12.910Z,34.50
2023-03-22T14:12:11.917Z,34.49
2023-03-22T14:16:10.974Z,34.58
2023-03-22T14:20:09.936Z,34.42
2023-03-22T14:49:09.302Z,34.90
2023-03-22T14:53:09.244Z,34.71
2023-03-22T14:57:09.218Z,34.67
2023-03-22T15:01:09.176Z,34.47
2023-03-22T15:05:09.169Z,34.43
2023-03-22T15:09:09.095Z,34.35
2023-03-22T15:13:09.160Z,34.30
2023-03-22T15:17:09.346Z,34.31
2023-03-22T15:21:09.553Z,34.24
2023-03-22T15:25:09.738Z,34.25
2023-03-22T15:29:09.937Z,34.22
2023-03-22T15:33:10.143Z,34.21
2023-03-22T15:37:10.343Z,34.17
2023-03-22T15:41:10.549Z,34.16
2023-03-22T15:45:10.774Z,34.19
2023-03-22T15:49:10.965Z,34.14
2023-03-22T15:53:11.197Z,34.14
2023-03-22T15:57:11.355Z,34.09
2023-03-22T16:01:11.591Z,34.13
2023-03-22T16:05:11.788Z,34.13
2023-03-22T16:09:12.000Z,34.12
2023-03-22T16:13:12.250Z,34.13
2023-03-22T16:17:12.394Z,34.13
2023-03-22T16:21:12.609Z,34.18
2023-03-22T16:25:12.809Z,34.22
2023-03-22T16:29:13.035Z,34.18
2023-03-22T16:33:13.234Z,34.18
2023-03-22T16:37:13.458Z,34.18
2023-03-22T16:41:13.394Z,34.15
2023-03-22T16:45:13.360Z,34.23
2023-03-22T16:49:13.308Z,34.20
2023-03-22T16:53:13.279Z,34.33
2023-03-22T16:57:13.224Z,34.63
2023-03-22T17:01:13.235Z,35.40
2023-03-22T17:05:13.161Z,38.47
2023-03-22T17:09:13.137Z,36.35
2023-03-22T17:13:13.115Z,36.23
2023-03-22T17:17:13.064Z,36.07
2023-03-22T17:21:13.072Z,36.00
2023-03-22T17:25:13.269Z,35.77
2023-03-22T17:29:13.482Z,35.60
2023-03-22T17:33:14.351Z,35.51
2023-03-22T17:37:13.893Z,35.38
2023-03-22T17:41:14.097Z,35.31
2023-03-22T17:45:14.082Z,35.22
2023-03-22T17:49:14.052Z,35.22
2023-03-22T17:53:32.282Z,35.21
2023-03-22T17:57:52.400Z,35.18
2023-03-22T18:01:14.999Z,35.19
2023-03-22T18:05:15.607Z,35.16
2023-03-22T18:09:13.860Z,35.26
2023-03-22T18:13:13.852Z,35.23
2023-03-22T18:17:13.887Z,35.29
2023-03-22T18:21:13.771Z,35.24
2023-03-22T18:25:13.758Z,35.19
2023-03-22T18:29:13.723Z,35.21
2023-03-22T18:33:13.710Z,35.23
2023-03-22T18:37:13.776Z,35.26
2023-03-22T18:45:15.929Z,35.32
2023-03-22T18:49:13.764Z,35.33
2023-03-22T18:53:18.678Z,35.36
2023-03-22T18:57:18.112Z,35.39
2023-03-22T19:01:14.157Z,35.44
2023-03-22T19:05:13.923Z,35.46
2023-03-22T19:09:13.870Z,35.48
2023-03-22T19:13:13.882Z,35.44
2023-03-22T19:17:13.848Z,35.45
2023-03-22T19:21:23.401Z,35.48
2023-03-22T19:25:15.088Z,35.49
2023-03-22T19:29:14.051Z,35.55
2023-03-22T19:33:30.838Z,35.52
2023-03-22T19:37:15.227Z,35.57
2023-03-22T19:41:45.115Z,35.52
2023-03-22T19:45:15.346Z,35.49
2023-03-22T19:49:15.160Z,35.48
2023-03-22T19:57:15.675Z,35.29
2023-03-22T20:01:14.655Z,35.28
2023-03-22T20:05:18.053Z,35.22
2023-03-22T20:09:14.805Z,35.16
2023-03-22T20:13:14.776Z,35.17
2023-03-22T20:17:20.856Z,35.14
2023-03-22T20:21:15.697Z,35.00
2023-03-22T20:25:14.665Z,35.01
2023-03-22T20:29:14.829Z,34.97
2023-03-22T20:33:15.024Z,34.96
2023-03-22T20:37:15.242Z,34.92
2023-03-22T20:41:15.443Z,34.92
2023-03-22T20:45:15.622Z,34.83
2023-03-22T20:49:15.808Z,34.79
2023-03-22T20:53:15.984Z,34.79
2023-03-22T20:57:16.141Z,34.76
2023-03-22T21:01:16.309Z,34.74
2023-03-22T21:05:16.519Z,34.70
2023-03-22T21:09:16.653Z,34.67
2023-03-22T21:13:16.846Z,34.68
2023-03-22T21:17:17.010Z,34.58
2023-03-22T21:21:17.239Z,34.53
2023-03-22T21:25:17.467Z,34.47
2023-03-22T21:29:17.675Z,34.50
2023-03-22T21:33:17.856Z,34.50
2023-03-22T21:37:18.029Z,34.48
2023-03-22T21:41:18.247Z,34.40
2023-03-22T21:45:18.408Z,34.44
2023-03-22T21:49:18.562Z,34.39
2023-03-22T21:53:18.743Z,34.34
2023-03-22T21:57:18.936Z,34.31
2023-03-22T22:01:19.968Z,34.27
2023-03-22T22:05:19.107Z,34.27
2023-03-22T22:09:19.066Z,34.19
2023-03-22T22:13:19.025Z,34.21
2023-03-22T22:17:18.972Z,34.16
2023-03-22T22:21:18.910Z,34.15
2023-03-22T22:25:18.878Z,34.14
2023-03-22T22:29:18.836Z,34.11
2023-03-22T22:33:18.833Z,34.08
2023-03-22T22:37:18.796Z,34.08
2023-03-22T22:41:18.752Z,34.01
2023-03-22T22:45:18.708Z,33.96
2023-03-22T22:49:18.642Z,33.92
2023-03-22T22:53:18.673Z,33.90
2023-03-22T22:57:18.811Z,33.91
2023-03-22T23:01:18.936Z,33.88
2023-03-22T23:05:19.130Z,33.87
2023-03-22T23:09:19.283Z,33.79
2023-03-22T23:13:19.429Z,33.79
2023-03-22T23:17:19.583Z,33.79
2023-03-22T23:21:19.695Z,33.78
2023-03-22T23:25:19.767Z,33.79
2023-03-22T23:29:19.882Z,33.72
2023-03-22T23:33:20.026Z,33.73
2023-03-22T23:37:20.218Z,33.69
2023-03-22T23:41:20.407Z,33.67
2023-03-22T23:45:20.549Z,33.66
2023-03-22T23:49:20.749Z,33.60
2023-03-22T23:53:20.795Z,33.62
2023-03-22T23:57:20.841Z,33.59
